Time;durP1;ratioP1;P1;durP2;ratioP2;P2;SDS_P1;SDS_P2;PMS_P1;PMS_P2;Temp;Humidity;BMP_temperature;BMP_pressure;BME280_temperature;BME280_humidity;BME280_pressure;Samples;Min_cycle;Max_cycle;Signal;HPM_P1;HPM_P2
2022/03/26 00:00:48;;;;;;;37.27;25.50;;;;;;;;;;4944048;28;20648;-81
2022/03/26 00:03:14;;;;;;;40.73;26.50;;;;;;;;;;4969038;28;20305;-80
2022/03/26 00:05:40;;;;;;;37.73;25.57;;;;;;;;;;4970576;28;20203;-82
2022/03/26 00:08:06;;;;;;;36.03;24.43;;;;;;;;;;4971688;28;20278;-80
2022/03/26 00:10:32;;;;;;;37.37;25.27;;;;;;;;;;4948808;28;20285;-80
2022/03/26 00:12:58;;;;;;;38.67;25.90;;;;;;;;;;4970786;28;20575;-82
2022/03/26 00:15:25;;;;;;;38.50;24.97;;;;;;;;;;4970872;28;21063;-81
2022/03/26 00:17:51;;;;;;;36.73;26.73;;;;;;;;;;4977858;28;20206;-80
2022/03/26 00:20:17;;;;;;;33.80;24.70;;;;;;;;;;4966849;28;20206;-82
2022/03/26 00:22:47;;;;;;;37.20;25.67;;;;;;;;;;4969705;28;20197;-79
2022/03/26 00:25:15;;;;;;;44.27;27.47;;;;;;;;;;4971073;28;20202;-82
2022/03/26 00:27:41;;;;;;;34.77;24.90;;;;;;;;;;4971980;28;20277;-79
2022/03/26 00:30:07;;;;;;;39.07;26.37;;;;;;;;;;4985969;28;20201;-80
2022/03/26 00:32:33;;;;;;;43.27;28.70;;;;;;;;;;4971222;28;20197;-80
2022/03/26 00:34:59;;;;;;;41.37;27.57;;;;;;;;;;4971316;28;20190;-81
2022/03/26 00:37:25;;;;;;;46.67;30.77;;;;;;;;;;4972852;28;20190;-80
2022/03/26 00:39:51;;;;;;;43.60;30.37;;;;;;;;;;4974507;28;20208;-80
2022/03/26 00:42:17;;;;;;;42.10;28.83;;;;;;;;;;4971168;28;20264;-82
2022/03/26 00:44:43;;;;;;;43.83;28.80;;;;;;;;;;4950271;28;20671;-82
2022/03/26 00:47:09;;;;;;;43.23;29.73;;;;;;;;;;4967425;28;20191;-81
2022/03/26 00:49:35;;;;;;;46.47;28.77;;;;;;;;;;4965947;28;20202;-81
2022/03/26 00:52:01;;;;;;;44.50;29.50;;;;;;;;;;4975889;28;20201;-82
2022/03/26 00:54:28;;;;;;;46.07;29.93;;;;;;;;;;4972747;28;21510;-81
2022/03/26 00:56:54;;;;;;;43.30;27.40;;;;;;;;;;4974189;28;20187;-81
2022/03/26 00:59:19;;;;;;;41.70;28.90;;;;;;;;;;4970961;28;20217;-81
2022/03/26 01:01:46;;;;;;;41.93;27.70;;;;;;;;;;4970276;28;20191;-81
2022/03/26 01:04:12;;;;;;;44.93;29.60;;;;;;;;;;4967890;28;20238;-82
2022/03/26 01:06:38;;;;;;;40.93;29.23;;;;;;;;;;4965095;28;20193;-81
2022/03/26 01:09:04;;;;;;;42.63;29.77;;;;;;;;;;4956912;28;20214;-82
2022/03/26 01:11:30;;;;;;;42.13;29.00;;;;;;;;;;4967845;28;20186;-81
2022/03/26 01:13:56;;;;;;;42.30;28.97;;;;;;;;;;4969826;28;20206;-80
2022/03/26 01:16:25;;;;;;;42.97;28.40;;;;;;;;;;4968409;28;20190;-80
2022/03/26 01:18:52;;;;;;;45.00;30.10;;;;;;;;;;4966380;28;20197;-81
2022/03/26 01:21:18;;;;;;;42.30;29.53;;;;;;;;;;4952514;28;20229;-80
2022/03/26 01:23:46;;;;;;;42.30;28.77;;;;;;;;;;4968450;28;20198;-81
2022/03/26 01:26:12;;;;;;;44.07;28.23;;;;;;;;;;4973792;28;20229;-81
2022/03/26 01:28:38;;;;;;;41.53;29.33;;;;;;;;;;4955385;28;20222;-80
2022/03/26 01:31:04;;;;;;;42.13;27.63;;;;;;;;;;4974669;28;20256;-80
2022/03/26 01:33:30;;;;;;;44.13;29.30;;;;;;;;;;4971732;28;21134;-80
2022/03/26 01:35:56;;;;;;;43.53;28.37;;;;;;;;;;4965830;28;20194;-81
2022/03/26 01:38:22;;;;;;;39.67;28.27;;;;;;;;;;4970322;28;20535;-81
2022/03/26 01:40:48;;;;;;;42.20;28.47;;;;;;;;;;4967781;28;20197;-82
2022/03/26 01:43:14;;;;;;;40.57;28.07;;;;;;;;;;4986348;28;20187;-82
2022/03/26 01:45:40;;;;;;;42.73;28.33;;;;;;;;;;4977083;28;20207;-80
2022/03/26 01:48:06;;;;;;;41.93;28.73;;;;;;;;;;4955552;28;20214;-82
2022/03/26 01:50:32;;;;;;;45.40;29.60;;;;;;;;;;4973904;28;20197;-80
2022/03/26 01:52:58;;;;;;;48.60;30.53;;;;;;;;;;4973005;28;20201;-83
2022/03/26 01:55:25;;;;;;;42.43;29.87;;;;;;;;;;4954202;28;20210;-82
2022/03/26 01:57:51;;;;;;;45.47;28.93;;;;;;;;;;4972996;28;20253;-82
2022/03/26 02:00:17;;;;;;;46.43;29.93;;;;;;;;;;4970460;28;21318;-82
2022/03/26 02:02:45;;;;;;;44.97;30.87;;;;;;;;;;4957935;28;20203;-81
2022/03/26 02:05:15;;;;;;;42.33;29.13;;;;;;;;;;4976910;28;20238;-82
2022/03/26 02:07:42;;;;;;;45.60;28.97;;;;;;;;;;4974596;28;20191;-81
2022/03/26 02:10:08;;;;;;;46.17;29.87;;;;;;;;;;4977092;28;20296;-82
2022/03/26 02:12:34;;;;;;;42.37;29.50;;;;;;;;;;4977349;28;20187;-83
2022/03/26 02:15:00;;;;;;;39.33;28.87;;;;;;;;;;4980022;28;20233;-81
2022/03/26 02:17:26;;;;;;;42.77;28.73;;;;;;;;;;4978948;28;20213;-82
2022/03/26 02:19:56;;;;;;;50.47;30.90;;;;;;;;;;4966785;28;20701;-83
2022/03/26 02:22:22;;;;;;;45.47;30.63;;;;;;;;;;4983712;28;20197;-83
2022/03/26 02:24:49;;;;;;;41.93;29.13;;;;;;;;;;4979814;28;20191;-82
2022/03/26 02:27:14;;;;;;;44.37;29.03;;;;;;;;;;4964934;28;20193;-82
2022/03/26 02:29:40;;;;;;;44.67;30.17;;;;;;;;;;4985498;28;20263;-82
2022/03/26 02:32:07;;;;;;;46.77;30.07;;;;;;;;;;4994597;28;20195;-81
2022/03/26 02:34:33;;;;;;;42.73;30.03;;;;;;;;;;4978334;28;20246;-83
2022/03/26 02:36:59;;;;;;;42.70;28.80;;;;;;;;;;4978182;28;20202;-81
2022/03/26 02:39:25;;;;;;;43.57;29.60;;;;;;;;;;4979130;28;20273;-80
2022/03/26 02:41:51;;;;;;;46.93;30.67;;;;;;;;;;4975426;28;20666;-80
2022/03/26 02:44:17;;;;;;;46.27;30.03;;;;;;;;;;4967971;28;20202;-80
2022/03/26 02:46:45;;;;;;;50.40;30.53;;;;;;;;;;4970649;28;20723;-80
2022/03/26 02:49:12;;;;;;;44.47;29.50;;;;;;;;;;4962066;28;20249;-80
2022/03/26 02:51:37;;;;;;;46.93;30.87;;;;;;;;;;4973373;28;20281;-81
2022/03/26 02:54:03;;;;;;;49.43;30.13;;;;;;;;;;4976463;28;20264;-81
2022/03/26 02:56:29;;;;;;;47.67;31.67;;;;;;;;;;4974800;28;21622;-81
2022/03/26 02:58:55;;;;;;;40.90;30.17;;;;;;;;;;4974020;28;20202;-81
2022/03/26 03:01:23;;;;;;;46.10;30.13;;;;;;;;;;4969756;28;20208;-81
2022/03/26 03:03:49;;;;;;;44.60;30.20;;;;;;;;;;4957024;28;21100;-82
2022/03/26 03:06:15;;;;;;;48.70;31.00;;;;;;;;;;4959322;28;20302;-80
2022/03/26 03:08:41;;;;;;;46.20;30.27;;;;;;;;;;4966585;28;20253;-82
2022/03/26 03:11:08;;;;;;;50.27;33.83;;;;;;;;;;4953348;28;20316;-80
2022/03/26 03:13:34;;;;;;;51.10;34.83;;;;;;;;;;4971547;28;20183;-82
2022/03/26 03:16:00;;;;;;;58.97;36.87;;;;;;;;;;4965396;28;20198;-82
2022/03/26 03:18:26;;;;;;;59.43;37.40;;;;;;;;;;4971646;28;21184;-81
2022/03/26 03:20:52;;;;;;;58.67;37.77;;;;;;;;;;4974350;28;20217;-82
2022/03/26 03:23:18;;;;;;;59.17;38.53;;;;;;;;;;4974224;28;20197;-81
2022/03/26 03:25:45;;;;;;;56.50;36.57;;;;;;;;;;4979977;28;20741;-81
2022/03/26 03:28:10;;;;;;;54.27;34.13;;;;;;;;;;4969201;28;20293;-82
2022/03/26 03:30:36;;;;;;;52.30;34.87;;;;;;;;;;4967893;28;20280;-81
2022/03/26 03:33:02;;;;;;;53.27;34.13;;;;;;;;;;4966727;28;20202;-80
2022/03/26 03:35:28;;;;;;;56.63;35.50;;;;;;;;;;4970286;28;20190;-81
2022/03/26 03:37:54;;;;;;;56.77;35.13;;;;;;;;;;4984110;28;20212;-82
2022/03/26 03:40:20;;;;;;;51.10;33.70;;;;;;;;;;4976324;28;20214;-82
2022/03/26 03:42:46;;;;;;;53.20;34.10;;;;;;;;;;4973763;28;20215;-81
2022/03/26 03:45:12;;;;;;;55.27;35.10;;;;;;;;;;4964787;28;20193;-81
2022/03/26 03:47:38;;;;;;;52.83;35.23;;;;;;;;;;4969862;28;20574;-82
2022/03/26 03:50:05;;;;;;;55.23;34.73;;;;;;;;;;4971094;28;20588;-82
2022/03/26 03:52:31;;;;;;;50.63;33.17;;;;;;;;;;4972608;28;20188;-82
2022/03/26 03:54:57;;;;;;;54.97;32.43;;;;;;;;;;4968557;28;20200;-81
2022/03/26 03:57:23;;;;;;;50.67;32.57;;;;;;;;;;4972184;28;20278;-79
2022/03/26 03:59:49;;;;;;;47.47;32.37;;;;;;;;;;4968192;28;20197;-82
2022/03/26 04:02:16;;;;;;;52.50;33.43;;;;;;;;;;4949291;28;20297;-82
2022/03/26 04:04:42;;;;;;;47.10;30.93;;;;;;;;;;4969461;28;20230;-81
2022/03/26 04:07:08;;;;;;;45.17;30.73;;;;;;;;;;4966976;28;20283;-80
2022/03/26 04:09:34;;;;;;;50.23;33.00;;;;;;;;;;4971588;28;20214;-82
2022/03/26 04:12:00;;;;;;;49.83;32.10;;;;;;;;;;4971852;28;20212;-81
2022/03/26 04:14:26;;;;;;;47.50;31.80;;;;;;;;;;4953477;28;21785;-82
2022/03/26 04:16:53;;;;;;;48.43;30.50;;;;;;;;;;4944601;28;20228;-81
2022/03/26 04:19:19;;;;;;;44.83;30.40;;;;;;;;;;4971837;28;20202;-82
2022/03/26 04:21:45;;;;;;;50.00;31.20;;;;;;;;;;4970282;28;20200;-81
2022/03/26 04:24:12;;;;;;;44.53;30.10;;;;;;;;;;4968726;28;20827;-81
2022/03/26 04:26:38;;;;;;;48.23;31.30;;;;;;;;;;4967424;28;20183;-80
2022/03/26 04:29:04;;;;;;;44.90;30.00;;;;;;;;;;4966475;28;20217;-81
2022/03/26 04:31:30;;;;;;;47.93;31.10;;;;;;;;;;4964601;28;20194;-81
2022/03/26 04:34:01;;;;;;;43.93;30.47;;;;;;;;;;4972057;28;20565;-82
2022/03/26 04:36:27;;;;;;;48.43;30.03;;;;;;;;;;4963807;28;20997;-81
2022/03/26 04:38:53;;;;;;;43.77;30.40;;;;;;;;;;4948350;28;20190;-81
2022/03/26 04:41:19;;;;;;;47.30;31.23;;;;;;;;;;4964804;28;20269;-82
2022/03/26 04:43:45;;;;;;;49.57;31.37;;;;;;;;;;4975010;28;20205;-82
2022/03/26 04:46:11;;;;;;;45.60;30.40;;;;;;;;;;4972662;28;20189;-82
2022/03/26 04:48:37;;;;;;;48.70;30.83;;;;;;;;;;4965537;28;20222;-83
2022/03/26 04:51:03;;;;;;;48.40;30.17;;;;;;;;;;4967206;28;20198;-82
2022/03/26 04:53:29;;;;;;;46.93;30.20;;;;;;;;;;4969272;28;20201;-82
2022/03/26 04:55:55;;;;;;;44.40;29.87;;;;;;;;;;4961948;28;20198;-82
2022/03/26 04:58:21;;;;;;;48.60;29.47;;;;;;;;;;4967667;28;20222;-81
2022/03/26 05:00:47;;;;;;;45.27;29.80;;;;;;;;;;4966094;28;20368;-82
2022/03/26 05:03:13;;;;;;;47.83;31.53;;;;;;;;;;4973454;28;20615;-82
2022/03/26 05:05:39;;;;;;;45.40;30.67;;;;;;;;;;4972769;28;20194;-81
2022/03/26 05:08:05;;;;;;;41.80;29.17;;;;;;;;;;4964218;28;20205;-81
2022/03/26 05:10:31;;;;;;;47.10;30.13;;;;;;;;;;4944400;28;20285;-82
2022/03/26 05:12:58;;;;;;;45.23;29.87;;;;;;;;;;4969085;28;20664;-81
2022/03/26 05:15:24;;;;;;;44.93;30.23;;;;;;;;;;4959730;28;20281;-83
2022/03/26 05:17:51;;;;;;;45.77;29.33;;;;;;;;;;4970467;28;20579;-80
2022/03/26 05:20:18;;;;;;;43.87;30.27;;;;;;;;;;4968663;28;20204;-80
2022/03/26 05:22:45;;;;;;;45.97;30.50;;;;;;;;;;4969422;28;20221;-82
2022/03/26 05:25:11;;;;;;;48.27;29.87;;;;;;;;;;4967532;28;20197;-82
2022/03/26 05:27:37;;;;;;;45.57;29.83;;;;;;;;;;4954034;28;20198;-81
2022/03/26 05:30:06;;;;;;;43.90;29.67;;;;;;;;;;4954952;28;20856;-80
2022/03/26 05:32:32;;;;;;;44.20;30.07;;;;;;;;;;4944671;28;20276;-82
2022/03/26 05:34:58;;;;;;;47.87;29.87;;;;;;;;;;4966917;28;20578;-82
2022/03/26 05:37:24;;;;;;;43.57;30.17;;;;;;;;;;4969389;28;20186;-82
2022/03/26 05:39:50;;;;;;;46.10;31.97;;;;;;;;;;4951000;28;20198;-80
2022/03/26 05:42:16;;;;;;;51.13;31.20;;;;;;;;;;4965117;28;20208;-82
2022/03/26 05:44:42;;;;;;;46.73;30.50;;;;;;;;;;4965840;28;20192;-81
2022/03/26 05:47:08;;;;;;;50.57;31.00;;;;;;;;;;4964666;28;20547;-80
2022/03/26 05:49:34;;;;;;;48.47;31.70;;;;;;;;;;4975153;28;20210;-82
2022/03/26 05:52:00;;;;;;;48.03;31.73;;;;;;;;;;4972215;28;20189;-82
2022/03/26 05:54:26;;;;;;;42.43;30.30;;;;;;;;;;4980798;28;20258;-80
2022/03/26 05:56:52;;;;;;;48.97;31.17;;;;;;;;;;4971443;28;20231;-81
2022/03/26 05:59:23;;;;;;;47.67;31.57;;;;;;;;;;4977729;28;20843;-82
2022/03/26 06:01:49;;;;;;;45.77;30.50;;;;;;;;;;4969539;28;20201;-82
2022/03/26 06:04:15;;;;;;;53.37;31.97;;;;;;;;;;4970101;28;20250;-82
2022/03/26 06:06:41;;;;;;;49.60;30.03;;;;;;;;;;4980130;28;20208;-80
2022/03/26 06:09:07;;;;;;;49.13;31.60;;;;;;;;;;4970420;28;20302;-83
2022/03/26 06:11:33;;;;;;;52.37;30.87;;;;;;;;;;4979597;28;20233;-85
2022/03/26 06:14:00;;;;;;;41.53;29.20;;;;;;;;;;4952922;28;20197;-81
2022/03/26 06:16:26;;;;;;;44.07;29.63;;;;;;;;;;4955053;28;20246;-81
2022/03/26 06:18:52;;;;;;;44.33;30.13;;;;;;;;;;4974333;28;20199;-82
2022/03/26 06:21:18;;;;;;;43.77;30.33;;;;;;;;;;4973104;28;20193;-81
2022/03/26 06:23:44;;;;;;;51.53;32.03;;;;;;;;;;4974611;28;20227;-81
2022/03/26 06:26:10;;;;;;;54.93;32.10;;;;;;;;;;4970595;28;20206;-83
2022/03/26 06:28:36;;;;;;;50.13;32.67;;;;;;;;;;4974061;28;20221;-82
2022/03/26 06:31:02;;;;;;;46.77;30.53;;;;;;;;;;4961116;28;20192;-80
2022/03/26 06:33:28;;;;;;;44.43;30.90;;;;;;;;;;4981851;28;20236;-81
2022/03/26 06:35:54;;;;;;;44.77;30.03;;;;;;;;;;4963187;28;20193;-82
2022/03/26 06:38:20;;;;;;;46.10;29.63;;;;;;;;;;4965221;28;20209;-82
2022/03/26 06:40:46;;;;;;;49.63;30.27;;;;;;;;;;4984891;28;20320;-82
2022/03/26 06:43:12;;;;;;;44.77;30.03;;;;;;;;;;4965507;28;20189;-82
2022/03/26 06:45:40;;;;;;;43.20;29.10;;;;;;;;;;4973953;28;20200;-80
2022/03/26 06:48:08;;;;;;;44.87;31.03;;;;;;;;;;4973566;28;20295;-81
2022/03/26 06:50:34;;;;;;;48.67;30.67;;;;;;;;;;4973005;28;20193;-81
2022/03/26 06:53:00;;;;;;;45.57;30.60;;;;;;;;;;4971176;28;20193;-80
2022/03/26 06:55:27;;;;;;;47.97;29.53;;;;;;;;;;4975509;28;20527;-81
2022/03/26 06:57:53;;;;;;;48.43;29.67;;;;;;;;;;4990583;28;20195;-83
2022/03/26 07:00:19;;;;;;;48.07;31.63;;;;;;;;;;4971577;28;20197;-82
2022/03/26 07:02:45;;;;;;;45.83;30.00;;;;;;;;;;4970510;28;20198;-84
2022/03/26 07:05:12;;;;;;;46.20;30.70;;;;;;;;;;4955291;28;20230;-83
2022/03/26 07:07:37;;;;;;;48.20;31.30;;;;;;;;;;4968473;28;20656;-83
2022/03/26 07:10:04;;;;;;;50.93;32.00;;;;;;;;;;4968621;28;20302;-82
2022/03/26 07:12:33;;;;;;;45.53;30.97;;;;;;;;;;4955873;28;20824;-80
2022/03/26 07:14:59;;;;;;;48.90;30.87;;;;;;;;;;4975480;28;22349;-79
2022/03/26 07:17:25;;;;;;;45.70;31.17;;;;;;;;;;4969196;28;20191;-82
2022/03/26 07:19:51;;;;;;;43.50;31.00;;;;;;;;;;4959256;28;20199;-79
2022/03/26 07:22:17;;;;;;;45.63;30.20;;;;;;;;;;4969729;28;20198;-80
2022/03/26 07:24:43;;;;;;;42.33;28.00;;;;;;;;;;4961724;28;20192;-80
2022/03/26 07:27:09;;;;;;;42.20;26.80;;;;;;;;;;4964066;28;20269;-82
2022/03/26 07:29:39;;;;;;;45.67;27.53;;;;;;;;;;4971024;28;20214;-82
2022/03/26 07:32:11;;;;;;;43.53;27.57;;;;;;;;;;4967487;28;20400;-81
2022/03/26 07:34:37;;;;;;;47.80;28.27;;;;;;;;;;4946629;28;20201;-80
2022/03/26 07:37:03;;;;;;;41.37;28.57;;;;;;;;;;4974880;28;20231;-80
2022/03/26 07:39:29;;;;;;;44.57;31.03;;;;;;;;;;4957092;28;20198;-80
2022/03/26 07:41:55;;;;;;;47.10;32.43;;;;;;;;;;4974039;28;21152;-80
2022/03/26 07:44:21;;;;;;;47.83;30.50;;;;;;;;;;4965518;28;20254;-78
2022/03/26 07:46:47;;;;;;;44.43;31.63;;;;;;;;;;4968880;28;20218;-79
2022/03/26 07:49:13;;;;;;;49.73;31.90;;;;;;;;;;4966877;28;20269;-80
2022/03/26 07:51:39;;;;;;;46.80;31.00;;;;;;;;;;4967419;28;20198;-79
2022/03/26 07:54:05;;;;;;;48.47;32.80;;;;;;;;;;4968581;28;20198;-82
2022/03/26 07:56:31;;;;;;;55.17;34.70;;;;;;;;;;4965442;28;20186;-78
2022/03/26 07:59:00;;;;;;;52.13;35.03;;;;;;;;;;4970596;28;20203;-81
2022/03/26 08:01:27;;;;;;;55.87;34.80;;;;;;;;;;4965344;28;20209;-80
2022/03/26 08:03:54;;;;;;;53.90;34.67;;;;;;;;;;4931138;28;1041591;-79
2022/03/26 08:06:21;;;;;;;47.60;31.93;;;;;;;;;;4966871;28;20737;-79
2022/03/26 08:08:46;;;;;;;44.63;29.80;;;;;;;;;;4942612;28;20218;-80
2022/03/26 08:11:12;;;;;;;86.97;41.40;;;;;;;;;;4959824;28;20249;-84
2022/03/26 08:13:39;;;;;;;64.87;37.77;;;;;;;;;;4967399;28;20190;-81
2022/03/26 08:16:07;;;;;;;62.70;38.23;;;;;;;;;;4971282;28;20237;-83
2022/03/26 08:18:33;;;;;;;68.03;39.33;;;;;;;;;;4974431;28;20210;-82
2022/03/26 08:20:59;;;;;;;94.37;41.00;;;;;;;;;;4947271;28;20285;-80
2022/03/26 08:23:25;;;;;;;62.20;37.10;;;;;;;;;;4973527;28;20277;-81
2022/03/26 08:28:35;;;;;;;62.70;38.77;;;;;;;;;;4969640;28;20265;-82
2022/03/26 08:31:01;;;;;;;62.57;37.43;;;;;;;;;;4968277;28;20187;-83
2022/03/26 08:33:27;;;;;;;52.90;33.43;;;;;;;;;;4951035;28;20218;-82
2022/03/26 08:35:53;;;;;;;58.83;37.30;;;;;;;;;;4948653;28;20191;-83
2022/03/26 08:38:21;;;;;;;74.47;42.77;;;;;;;;;;4968862;28;20194;-84
2022/03/26 08:40:48;;;;;;;53.80;36.47;;;;;;;;;;4970760;28;20211;-81
2022/03/26 08:43:14;;;;;;;54.07;35.00;;;;;;;;;;4969040;28;21177;-82
2022/03/26 08:45:45;;;;;;;54.00;35.47;;;;;;;;;;4967842;28;20213;-84
2022/03/26 08:48:11;;;;;;;51.20;35.07;;;;;;;;;;4972493;28;20221;-81
2022/03/26 08:50:37;;;;;;;49.90;34.43;;;;;;;;;;4972226;28;20195;-81
2022/03/26 08:53:03;;;;;;;46.53;34.23;;;;;;;;;;4973057;28;20195;-81
2022/03/26 08:55:29;;;;;;;49.67;34.27;;;;;;;;;;4956488;28;20698;-82
2022/03/26 08:57:57;;;;;;;70.90;41.47;;;;;;;;;;4968862;28;20198;-81
2022/03/26 09:00:26;;;;;;;55.27;36.67;;;;;;;;;;4966473;28;20198;-87
2022/03/26 09:02:52;;;;;;;50.97;34.10;;;;;;;;;;4964920;28;20317;-79
2022/03/26 09:05:18;;;;;;;45.60;32.10;;;;;;;;;;4945022;28;20282;-78
2022/03/26 09:07:53;;;;;;;55.90;33.63;;;;;;;;;;4966309;28;20282;-84
2022/03/26 09:10:19;;;;;;;106.73;50.53;;;;;;;;;;4963838;28;20655;-80
2022/03/26 09:12:46;;;;;;;97.80;47.73;;;;;;;;;;4958632;28;20193;-79
2022/03/26 09:15:12;;;;;;;78.90;39.10;;;;;;;;;;4963818;28;20846;-81
2022/03/26 09:17:38;;;;;;;275.60;97.63;;;;;;;;;;4958026;28;20277;-80
2022/03/26 09:20:04;;;;;;;148.33;65.17;;;;;;;;;;4967589;28;20190;-78
2022/03/26 09:22:31;;;;;;;54.37;35.40;;;;;;;;;;4972735;28;20214;-78
2022/03/26 09:24:56;;;;;;;42.73;31.67;;;;;;;;;;4955234;28;20201;-78
2022/03/26 09:27:27;;;;;;;50.00;32.40;;;;;;;;;;4966938;28;20210;-86
2022/03/26 09:29:53;;;;;;;46.60;30.57;;;;;;;;;;4969822;28;20218;-85
2022/03/26 09:32:24;;;;;;;42.77;31.13;;;;;;;;;;4964616;28;20190;-83
2022/03/26 09:34:50;;;;;;;44.00;30.13;;;;;;;;;;4980166;28;20260;-85
2022/03/26 09:37:17;;;;;;;42.23;29.13;;;;;;;;;;4972316;28;20186;-84
2022/03/26 09:39:43;;;;;;;44.87;29.97;;;;;;;;;;4975418;28;20202;-84
2022/03/26 09:42:09;;;;;;;46.57;31.17;;;;;;;;;;4975094;28;20652;-83
2022/03/26 09:44:35;;;;;;;42.97;30.63;;;;;;;;;;4972422;28;20250;-83
2022/03/26 09:47:04;;;;;;;46.70;31.10;;;;;;;;;;4968644;28;20195;-83
2022/03/26 09:49:29;;;;;;;41.70;29.67;;;;;;;;;;4968828;28;20225;-83
2022/03/26 09:51:56;;;;;;;38.97;29.63;;;;;;;;;;4952855;28;20190;-83
2022/03/26 09:54:25;;;;;;;45.77;31.37;;;;;;;;;;4965561;28;20425;-82
2022/03/26 09:56:51;;;;;;;38.97;28.43;;;;;;;;;;4966173;28;20826;-82
2022/03/26 09:59:23;;;;;;;39.57;28.47;;;;;;;;;;4963949;28;20572;-83
2022/03/26 10:01:49;;;;;;;39.47;28.40;;;;;;;;;;4962824;28;20209;-82
2022/03/26 10:04:15;;;;;;;39.80;28.60;;;;;;;;;;4968448;28;20234;-81
2022/03/26 10:06:49;;;;;;;49.47;29.63;;;;;;;;;;4967387;28;20210;-76
2022/03/26 10:09:34;;;;;;;40.17;28.55;;;;;;;;;;4964077;28;20247;-78
2022/03/26 10:12:04;;;;;;;37.72;26.95;;;;;;;;;;4973297;28;21141;-77
2022/03/26 10:14:41;;;;;;;34.10;24.90;;;;;;;;;;4947248;28;20203;-79
2022/03/26 10:17:26;;;;;;;38.35;25.13;;;;;;;;;;4967459;28;20622;-78
2022/03/26 10:19:55;;;;;;;35.25;25.25;;;;;;;;;;4959943;28;20380;-78
2022/03/26 10:22:22;;;;;;;37.45;23.17;;;;;;;;;;4962236;28;20194;-77
2022/03/26 10:24:48;;;;;;;30.83;20.83;;;;;;;;;;4955088;28;20622;-81
2022/03/26 10:27:14;;;;;;;32.72;22.13;;;;;;;;;;4960817;28;20193;-81
2022/03/26 10:29:56;;;;;;;33.33;23.58;;;;;;;;;;4963501;28;20973;-79
2022/03/26 10:32:39;;;;;;;37.20;24.77;;;;;;;;;;4968560;28;20256;-80
2022/03/26 10:35:06;;;;;;;33.10;23.45;;;;;;;;;;4971936;28;20234;-81
2022/03/26 10:37:41;;;;;;;36.63;25.17;;;;;;;;;;4951852;28;20187;-77
2022/03/26 10:40:15;;;;;;;37.20;26.33;;;;;;;;;;4965056;28;20248;-77
2022/03/26 10:42:41;;;;;;;37.67;27.02;;;;;;;;;;4967095;28;20205;-81
2022/03/26 10:45:13;;;;;;;40.38;26.52;;;;;;;;;;4969033;28;20540;-80
2022/03/26 10:47:39;;;;;;;40.05;27.55;;;;;;;;;;4959113;28;20190;-80
2022/03/26 10:50:05;;;;;;;38.60;26.48;;;;;;;;;;4970754;28;20314;-81
2022/03/26 10:52:31;;;;;;;43.40;27.10;;;;;;;;;;4953856;28;20653;-81
2022/03/26 10:54:57;;;;;;;37.08;28.10;;;;;;;;;;4959737;28;20186;-81
2022/03/26 10:57:24;;;;;;;36.28;25.92;;;;;;;;;;4943891;28;20197;-81
2022/03/26 10:59:50;;;;;;;37.63;26.40;;;;;;;;;;4964439;28;20205;-81
2022/03/26 11:02:16;;;;;;;37.35;26.13;;;;;;;;;;4965794;28;20450;-82
2022/03/26 11:04:42;;;;;;;39.33;26.17;;;;;;;;;;4972040;28;21011;-82
2022/03/26 11:07:08;;;;;;;30.88;25.08;;;;;;;;;;4968741;28;20640;-81
2022/03/26 11:09:34;;;;;;;32.67;24.02;;;;;;;;;;4970489;28;20729;-81
2022/03/26 11:12:01;;;;;;;30.52;21.50;;;;;;;;;;4969083;28;20182;-81
2022/03/26 11:14:35;;;;;;;32.30;23.00;;;;;;;;;;4966207;28;20213;-81
2022/03/26 11:17:01;;;;;;;29.58;22.27;;;;;;;;;;4966605;28;20182;-81
2022/03/26 11:19:45;;;;;;;34.95;23.05;;;;;;;;;;4971231;28;20194;-81
2022/03/26 11:22:14;;;;;;;33.03;24.45;;;;;;;;;;4972187;28;21021;-80
2022/03/26 11:24:43;;;;;;;37.65;24.55;;;;;;;;;;4973529;28;20194;-82
2022/03/26 11:27:15;;;;;;;33.00;25.45;;;;;;;;;;4971189;28;20195;-81
2022/03/26 11:29:44;;;;;;;30.10;23.45;;;;;;;;;;4969881;28;20689;-82
2022/03/26 11:32:24;;;;;;;31.52;22.02;;;;;;;;;;4962735;28;20937;-81
2022/03/26 11:34:59;;;;;;;32.22;20.85;;;;;;;;;;4972781;28;20202;-80
2022/03/26 11:37:25;;;;;;;27.88;19.70;;;;;;;;;;4974257;28;20195;-81
2022/03/26 11:39:52;;;;;;;33.88;23.67;;;;;;;;;;4974062;28;20201;-81
2022/03/26 11:42:25;;;;;;;34.75;20.50;;;;;;;;;;4971247;28;20992;-81
2022/03/26 11:50:45;;;;;;;27.50;18.70;;;;;;;;;;4977594;28;20269;-81
2022/03/26 11:53:13;;;;;;;25.30;18.40;;;;;;;;;;4972844;28;20512;-81
2022/03/26 11:55:43;;;;;;;22.83;17.55;;;;;;;;;;4972675;28;20932;-81
2022/03/26 11:58:24;;;;;;;26.98;18.38;;;;;;;;;;4969298;28;20316;-81
2022/03/26 12:01:03;;;;;;;26.38;18.70;;;;;;;;;;4963028;28;20253;-80
2022/03/26 12:03:31;;;;;;;25.08;17.33;;;;;;;;;;4972273;28;20239;-78
2022/03/26 12:08:42;;;;;;;22.63;16.50;;;;;;;;;;4959127;28;20212;-80
2022/03/26 12:11:08;;;;;;;25.08;16.17;;;;;;;;;;4978210;28;20195;-79
2022/03/26 12:13:34;;;;;;;26.92;15.82;;;;;;;;;;4965096;28;20215;-78
2022/03/26 12:16:00;;;;;;;25.25;16.27;;;;;;;;;;4961258;28;20191;-78
2022/03/26 12:18:36;;;;;;;20.23;14.40;;;;;;;;;;4953312;28;20713;-79
2022/03/26 12:21:06;;;;;;;20.13;13.73;;;;;;;;;;4974546;28;20766;-77
2022/03/26 12:23:34;;;;;;;24.55;15.45;;;;;;;;;;4974052;28;20209;-77
2022/03/26 12:26:00;;;;;;;18.30;13.50;;;;;;;;;;4972676;28;20195;-78
2022/03/26 12:28:26;;;;;;;18.27;13.48;;;;;;;;;;4968146;28;20216;-77
2022/03/26 12:30:55;;;;;;;18.25;12.95;;;;;;;;;;4972254;28;20202;-78
2022/03/26 12:33:22;;;;;;;17.27;12.63;;;;;;;;;;4972648;28;20183;-78
2022/03/26 12:35:48;;;;;;;18.02;11.60;;;;;;;;;;4965765;28;20662;-76
2022/03/26 12:38:16;;;;;;;14.55;10.35;;;;;;;;;;4968307;28;20859;-77
2022/03/26 12:40:49;;;;;;;25.17;11.18;;;;;;;;;;4963345;28;20195;-77
2022/03/26 12:43:15;;;;;;;15.85;10.50;;;;;;;;;;4964549;28;20201;-77
2022/03/26 12:45:40;;;;;;;15.13;11.32;;;;;;;;;;4968438;28;20190;-77
2022/03/26 12:48:10;;;;;;;14.75;10.52;;;;;;;;;;4973198;28;20190;-77
2022/03/26 12:50:43;;;;;;;19.40;10.27;;;;;;;;;;4973863;28;21103;-77
2022/03/26 12:53:13;;;;;;;13.05;10.00;;;;;;;;;;4977359;28;20197;-78
2022/03/26 12:55:39;;;;;;;13.50;9.60;;;;;;;;;;4953067;28;20919;-78
2022/03/26 13:01:06;;;;;;;12.15;8.63;;;;;;;;;;4973988;28;20248;-78
2022/03/26 13:03:32;;;;;;;11.70;9.25;;;;;;;;;;4979480;28;20253;-79
2022/03/26 13:05:58;;;;;;;12.80;9.60;;;;;;;;;;4956972;28;20356;-79
2022/03/26 13:08:26;;;;;;;11.48;8.60;;;;;;;;;;4968642;28;20612;-77
2022/03/26 13:10:52;;;;;;;17.05;9.20;;;;;;;;;;4983147;28;20217;-78
2022/03/26 13:13:18;;;;;;;13.70;8.85;;;;;;;;;;4993566;28;20205;-80
2022/03/26 13:15:45;;;;;;;204.60;21.60;;;;;;;;;;4975892;28;20210;-78
2022/03/26 13:18:11;;;;;;;15.70;7.57;;;;;;;;;;4954537;28;20206;-78
2022/03/26 13:20:38;;;;;;;15.55;8.48;;;;;;;;;;4961062;28;20222;-79
2022/03/26 13:23:05;;;;;;;12.18;8.75;;;;;;;;;;4974600;28;20202;-79
2022/03/26 13:25:32;;;;;;;18.13;9.15;;;;;;;;;;4970004;28;20329;-79
2022/03/26 13:28:12;;;;;;;17.38;8.13;;;;;;;;;;4970444;28;20202;-78
2022/03/26 13:30:38;;;;;;;8.60;7.40;;;;;;;;;;4945879;28;20186;-79
2022/03/26 13:33:05;;;;;;;9.65;7.15;;;;;;;;;;4974452;28;20948;-79
2022/03/26 13:35:33;;;;;;;15.68;6.95;;;;;;;;;;4966985;28;20186;-80
2022/03/26 13:38:08;;;;;;;39.22;9.30;;;;;;;;;;4966486;28;20199;-79
2022/03/26 13:40:36;;;;;;;11.13;7.45;;;;;;;;;;4963357;28;21053;-82
2022/03/26 13:43:01;;;;;;;11.70;7.55;;;;;;;;;;4954465;28;20338;-83
2022/03/26 13:45:28;;;;;;;9.75;7.10;;;;;;;;;;4966354;28;20222;-82
2022/03/26 13:47:55;;;;;;;114.63;38.55;;;;;;;;;;4969786;28;20475;-81
2022/03/26 13:50:21;;;;;;;63.88;28.45;;;;;;;;;;4972453;28;20441;-81
2022/03/26 13:52:50;;;;;;;22.30;11.32;;;;;;;;;;4969956;28;20475;-81
2022/03/26 13:55:32;;;;;;;8.10;6.35;;;;;;;;;;4964788;28;20437;-81
2022/03/26 13:58:22;;;;;;;8.70;6.45;;;;;;;;;;4950543;28;20186;-84
2022/03/26 14:00:48;;;;;;;7.40;6.15;;;;;;;;;;4966602;28;20717;-81
2022/03/26 14:03:15;;;;;;;7.63;5.80;;;;;;;;;;4961719;28;20380;-80
2022/03/26 14:05:41;;;;;;;7.95;5.82;;;;;;;;;;4965154;28;20201;-80
2022/03/26 14:08:08;;;;;;;9.25;6.55;;;;;;;;;;4953244;28;20194;-81
2022/03/26 14:10:35;;;;;;;9.85;6.70;;;;;;;;;;4963414;28;20665;-81
2022/03/26 14:13:01;;;;;;;8.73;6.10;;;;;;;;;;4958722;28;20217;-85
2022/03/26 14:15:28;;;;;;;9.68;6.68;;;;;;;;;;4970216;28;20192;-84
2022/03/26 14:17:54;;;;;;;8.55;6.35;;;;;;;;;;4973395;28;20183;-85
2022/03/26 14:20:20;;;;;;;8.57;5.47;;;;;;;;;;4968293;28;20205;-85
2022/03/26 14:22:47;;;;;;;7.23;6.43;;;;;;;;;;4973666;28;20194;-86
2022/03/26 14:25:14;;;;;;;8.83;6.53;;;;;;;;;;4977566;28;20202;-86
2022/03/26 14:27:40;;;;;;;8.30;5.40;;;;;;;;;;4962642;28;21195;-84
2022/03/26 14:30:09;;;;;;;6.03;5.20;;;;;;;;;;4951422;28;20214;-83
2022/03/26 14:32:37;;;;;;;8.43;5.27;;;;;;;;;;4967709;28;20191;-86